Time;durP1;ratioP1;P1;durP2;ratioP2;P2;SDS_P1;SDS_P2;PMS_P1;PMS_P2;Temp;Humidity;BMP_temperature;BMP_pressure;BME280_temperature;BME280_humidity;BME280_pressure;Samples;Min_cycle;Max_cycle;Signal;HPM_P1;HPM_P2
2023/11/04 00:00:36;;;;;;;45.57;33.73;;;;;21.80;97675.00;;;;2060320;28;20488;-55
2023/11/04 00:01:36;;;;;;;50.20;35.13;;;;;21.80;97751.00;;;;2059998;28;22258;-56
2023/11/04 00:02:37;;;;;;;48.17;33.70;;;;;21.80;97743.00;;;;2043891;28;20679;-56
2023/11/04 00:03:39;;;;;;;47.17;32.15;;;;;21.80;97747.00;;;;2060878;28;20215;-55
2023/11/04 00:04:39;;;;;;;45.85;33.03;;;;;21.80;97742.00;;;;2057948;28;20249;-54
2023/11/04 00:05:40;;;;;;;44.60;32.23;;;;;21.80;97740.00;;;;2054755;28;20247;-55
2023/11/04 00:06:40;;;;;;;44.70;30.60;;;;;21.80;97743.00;;;;2061988;28;20244;-53
2023/11/04 00:07:40;;;;;;;43.53;30.57;;;;;21.80;97734.00;;;;2049113;28;20258;-56
2023/11/04 00:08:41;;;;;;;42.50;30.67;;;;;21.80;97744.00;;;;2056353;28;20216;-55
2023/11/04 00:09:43;;;;;;;40.33;30.50;;;;;21.80;97728.00;;;;2065943;28;20865;-56
2023/11/04 00:10:43;;;;;;;40.58;29.10;;;;;21.80;97729.00;;;;2061041;28;20364;-56
2023/11/04 00:11:45;;;;;;;39.00;28.30;;;;;21.80;97727.00;;;;2067650;28;20214;-53
2023/11/04 00:12:46;;;;;;;39.60;28.42;;;;;21.80;97727.00;;;;2047150;28;20564;-54
2023/11/04 00:13:46;;;;;;;41.73;28.20;;;;;21.80;97726.00;;;;2062816;28;20348;-56
2023/11/04 00:14:46;;;;;;;40.57;28.67;;;;;21.80;97732.00;;;;2066595;28;20221;-56
2023/11/04 00:15:47;;;;;;;46.10;28.73;;;;;21.80;97737.00;;;;2062548;28;20901;-57
2023/11/04 00:16:47;;;;;;;39.33;27.53;;;;;21.80;97726.00;;;;2056818;28;20211;-56
2023/11/04 00:17:47;;;;;;;35.93;26.47;;;;;21.40;97727.00;;;;2044732;28;20312;-54
2023/11/04 00:18:48;;;;;;;39.30;27.23;;;;;21.80;97732.00;;;;2056587;28;20211;-54
2023/11/04 00:19:48;;;;;;;35.50;24.97;;;;;21.80;97725.00;;;;2061034;28;20247;-55
2023/11/04 00:20:49;;;;;;;34.47;25.40;;;;;21.80;97723.00;;;;2058339;28;20219;-56
2023/11/04 00:21:49;;;;;;;33.30;24.07;;;;;21.80;97728.00;;;;2063100;28;20215;-56
2023/11/04 00:22:50;;;;;;;34.50;25.83;;;;;21.80;97726.00;;;;2049189;28;20852;-56
2023/11/04 00:23:50;;;;;;;35.80;26.90;;;;;21.80;97719.00;;;;2055870;28;20699;-56
2023/11/04 00:24:53;;;;;;;33.90;24.73;;;;;21.80;97724.00;;;;2061069;28;20249;-55
2023/11/04 00:25:53;;;;;;;32.13;23.52;;;;;21.70;97719.00;;;;2059241;28;20227;-57
2023/11/04 00:26:54;;;;;;;42.17;29.67;;;;;21.80;97725.00;;;;2055813;28;20221;-56
2023/11/04 00:27:54;;;;;;;42.90;29.40;;;;;21.80;97721.00;;;;2054154;28;20218;-53
2023/11/04 00:28:54;;;;;;;42.83;31.20;;;;;21.80;97733.00;;;;2065984;28;20261;-53
2023/11/04 00:29:55;;;;;;;38.20;27.67;;;;;21.90;97721.00;;;;2061013;28;20222;-54
2023/11/04 00:30:55;;;;;;;34.30;24.70;;;;;21.90;97715.00;;;;2057634;28;20215;-56
2023/11/04 00:31:55;;;;;;;31.90;24.53;;;;;21.80;97720.00;;;;2056044;28;20261;-55
2023/11/04 00:32:56;;;;;;;34.13;25.37;;;;;21.80;97723.00;;;;2053015;28;20219;-55
2023/11/04 00:33:56;;;;;;;34.70;25.40;;;;;21.80;97717.00;;;;2061562;28;20765;-57
2023/11/04 00:34:56;;;;;;;31.77;23.40;;;;;21.80;97720.00;;;;2068876;28;20738;-52
2023/11/04 00:35:57;;;;;;;34.20;25.10;;;;;21.80;97710.00;;;;2069693;28;20621;-54
2023/11/04 00:36:57;;;;;;;36.07;25.90;;;;;21.80;97706.00;;;;2059775;28;20621;-56
2023/11/04 00:37:57;;;;;;;35.20;24.00;;;;;21.80;97713.00;;;;2045302;28;20312;-57
2023/11/04 00:38:59;;;;;;;39.03;24.17;;;;;21.90;97712.00;;;;2057392;28;20227;-57
2023/11/04 00:40:06;;;;;;;32.97;22.95;;;;;21.80;97708.00;;;;2061229;28;20762;-55
2023/11/04 00:41:06;;;;;;;31.25;23.48;;;;;21.80;97711.00;;;;2064396;28;20227;-57
2023/11/04 00:42:07;;;;;;;27.17;15.30;;;;;21.80;97708.00;;;;2055014;28;20238;-57
2023/11/04 00:43:08;;;;;;;21.53;13.27;;;;;21.80;97709.00;;;;2050265;28;20222;-54
2023/11/04 00:44:08;;;;;;;22.65;13.68;;;;;21.70;97707.00;;;;2060196;28;20218;-56
2023/11/04 00:45:09;;;;;;;16.33;10.97;;;;;21.70;97710.00;;;;2062985;28;20770;-56
2023/11/04 00:46:09;;;;;;;16.40;11.47;;;;;21.70;97716.00;;;;2060742;28;20743;-54
2023/11/04 00:47:09;;;;;;;17.03;12.17;;;;;21.70;97713.00;;;;2063891;28;20222;-55
2023/11/04 00:48:10;;;;;;;19.40;13.13;;;;;21.60;97707.00;;;;2049203;28;20289;-56
2023/11/04 00:49:10;;;;;;;16.37;12.30;;;;;21.60;97706.00;;;;2057757;28;20231;-58
2023/11/04 00:50:10;;;;;;;25.57;14.57;;;;;21.60;97709.00;;;;2061316;28;20315;-56
2023/11/04 00:51:11;;;;;;;24.17;16.47;;;;;21.70;97699.00;;;;2061317;28;20230;-57
2023/11/04 00:52:12;;;;;;;24.67;14.60;;;;;21.60;97667.00;;;;2058995;28;20223;-54
2023/11/04 00:53:12;;;;;;;24.00;15.77;;;;;21.70;97707.00;;;;2051389;28;20706;-55
2023/11/04 00:54:12;;;;;;;23.67;15.20;;;;;21.70;97703.00;;;;2063105;28;20761;-57
2023/11/04 00:55:13;;;;;;;19.80;13.83;;;;;21.70;97705.00;;;;2063549;28;20237;-57
2023/11/04 00:56:13;;;;;;;19.67;15.00;;;;;21.70;97704.00;;;;2059585;28;20218;-56
2023/11/04 00:57:14;;;;;;;17.27;14.30;;;;;21.70;97707.00;;;;2059085;28;20218;-53
2023/11/04 00:58:14;;;;;;;20.60;14.07;;;;;21.70;97712.00;;;;2045890;28;20224;-56
2023/11/04 00:59:14;;;;;;;20.80;15.07;;;;;21.70;97703.00;;;;2062461;28;20703;-56
2023/11/04 01:00:16;;;;;;;20.87;15.50;;;;;21.70;97705.00;;;;2060080;28;21025;-55
2023/11/04 01:01:17;;;;;;;20.95;13.93;;;;;21.70;97705.00;;;;2058764;28;20639;-56
2023/11/04 01:02:18;;;;;;;21.53;14.10;;;;;21.70;97699.00;;;;2051963;28;20215;-56
2023/11/04 01:03:18;;;;;;;21.27;14.43;;;;;21.70;97697.00;;;;2060395;28;20223;-55
2023/11/04 01:04:19;;;;;;;21.33;14.40;;;;;21.70;97701.00;;;;2053610;28;20220;-56
2023/11/04 01:05:20;;;;;;;17.97;13.20;;;;;21.70;97698.00;;;;2052946;28;20215;-56
2023/11/04 01:06:20;;;;;;;19.83;14.30;;;;;21.70;97698.00;;;;2056677;28;20207;-53
2023/11/04 01:07:21;;;;;;;15.20;11.90;;;;;21.70;97693.00;;;;2045073;28;20298;-56
2023/11/04 01:08:22;;;;;;;18.50;12.70;;;;;21.70;97696.00;;;;2058518;28;20573;-57
2023/11/04 01:09:22;;;;;;;16.10;13.17;;;;;21.70;97693.00;;;;2061047;28;20989;-56
2023/11/04 01:10:23;;;;;;;17.93;12.67;;;;;21.70;97688.00;;;;2054275;28;20739;-53
2023/11/04 01:11:24;;;;;;;17.95;12.27;;;;;21.70;97689.00;;;;2058964;28;20247;-57
2023/11/04 01:12:24;;;;;;;16.50;11.70;;;;;21.70;97693.00;;;;2051172;28;20211;-54
2023/11/04 01:13:25;;;;;;;18.30;11.90;;;;;21.70;97689.00;;;;2060497;28;20211;-53
2023/11/04 01:14:25;;;;;;;16.10;11.50;;;;;21.70;97690.00;;;;2054157;28;20482;-56
2023/11/04 01:15:26;;;;;;;17.80;11.77;;;;;21.70;97689.00;;;;2060953;28;20238;-57
2023/11/04 01:16:26;;;;;;;15.67;11.70;;;;;21.70;97586.00;;;;2054217;28;20293;-57
2023/11/04 01:17:26;;;;;;;17.70;12.07;;;;;21.70;97691.00;;;;2044051;28;20715;-56
2023/11/04 01:18:27;;;;;;;16.47;10.80;;;;;21.70;97689.00;;;;2060377;28;20229;-56
2023/11/04 01:19:27;;;;;;;14.50;10.20;;;;;21.70;97698.00;;;;2060967;28;20215;-54
2023/11/04 01:20:29;;;;;;;14.53;10.30;;;;;21.70;97695.00;;;;2060977;28;20280;-55
2023/11/04 01:21:29;;;;;;;13.50;10.98;;;;;21.70;97632.00;;;;2060928;28;20219;-55
2023/11/04 01:22:30;;;;;;;18.07;10.27;;;;;21.70;97694.00;;;;2042777;28;20613;-55
2023/11/04 01:23:30;;;;;;;16.77;11.33;;;;;21.70;97701.00;;;;2060757;28;20297;-56
2023/11/04 01:24:30;;;;;;;12.20;10.10;;;;;21.70;97695.00;;;;2060884;28;20272;-56
2023/11/04 01:25:31;;;;;;;15.57;10.20;;;;;21.70;97699.00;;;;2059127;28;20305;-56
2023/11/04 01:26:31;;;;;;;16.90;10.77;;;;;21.70;97697.00;;;;2059836;28;20683;-56
2023/11/04 01:27:31;;;;;;;13.23;9.50;;;;;21.70;97695.00;;;;2045626;28;20793;-53
2023/11/04 01:28:32;;;;;;;13.00;10.17;;;;;21.70;97699.00;;;;2058930;28;20223;-54
2023/11/04 01:29:32;;;;;;;14.97;9.43;;;;;21.70;97688.00;;;;2059285;28;20269;-56
2023/11/04 01:30:33;;;;;;;15.37;10.70;;;;;21.70;97678.00;;;;2053177;28;20232;-55
2023/11/04 01:31:33;;;;;;;11.97;8.47;;;;;21.70;97688.00;;;;2057813;28;20223;-57
2023/11/04 01:32:33;;;;;;;12.23;9.10;;;;;21.70;97706.00;;;;2047002;28;20351;-56
2023/11/04 01:33:34;;;;;;;10.57;8.90;;;;;21.70;97700.00;;;;2052233;28;20223;-53
2023/11/04 01:34:34;;;;;;;12.83;9.30;;;;;21.70;97685.00;;;;2059759;28;20852;-56
2023/11/04 01:35:34;;;;;;;10.13;8.80;;;;;21.70;97679.00;;;;2060803;28;20921;-56
2023/11/04 01:36:35;;;;;;;11.30;9.20;;;;;21.70;97682.00;;;;2059751;28;20698;-55
2023/11/04 01:37:35;;;;;;;12.77;9.57;;;;;21.70;97681.00;;;;2044705;28;20604;-54
2023/11/04 01:38:36;;;;;;;11.60;8.93;;;;;21.70;97588.00;;;;2060673;28;20234;-55
2023/11/04 01:39:36;;;;;;;13.03;8.83;;;;;21.70;97674.00;;;;2060227;28;20222;-53
2023/11/04 01:40:36;;;;;;;11.43;8.30;;;;;21.70;97674.00;;;;2058938;28;20634;-55
2023/11/04 01:41:37;;;;;;;12.20;8.10;;;;;21.70;97679.00;;;;2053689;28;20230;-54
2023/11/04 01:42:43;;;;;;;11.73;7.67;;;;;21.70;97682.00;;;;2057299;28;20230;-54
2023/11/04 01:43:44;;;;;;;11.07;8.30;;;;;21.70;97682.00;;;;2050837;28;20215;-56
2023/11/04 01:44:44;;;;;;;16.60;10.30;;;;;21.70;97678.00;;;;2065165;28;20566;-56
2023/11/04 01:45:44;;;;;;;11.20;8.33;;;;;21.70;97677.00;;;;2060333;28;20241;-54
2023/11/04 01:46:45;;;;;;;11.93;7.87;;;;;21.70;97677.00;;;;2058031;28;20219;-54
2023/11/04 01:47:45;;;;;;;11.33;8.17;;;;;21.70;97681.00;;;;2044357;28;20261;-56
2023/11/04 01:48:46;;;;;;;11.00;7.97;;;;;21.70;97677.00;;;;2059480;28;20215;-56
2023/11/04 01:49:46;;;;;;;9.83;7.23;;;;;21.70;97676.00;;;;2073241;28;20931;-56
2023/11/04 01:50:46;;;;;;;9.80;7.50;;;;;21.70;97674.00;;;;2053284;28;20222;-56
2023/11/04 01:51:47;;;;;;;10.30;7.43;;;;;21.70;97674.00;;;;2057417;28;20294;-54
2023/11/04 01:52:47;;;;;;;10.47;6.83;;;;;21.70;97674.00;;;;2058262;28;20218;-54
2023/11/04 01:53:50;;;;;;;11.50;8.07;;;;;21.70;97679.00;;;;2058519;28;20202;-56
2023/11/04 01:54:50;;;;;;;9.57;7.55;;;;;21.70;97677.00;;;;2058893;28;20223;-56
2023/11/04 01:55:51;;;;;;;9.77;7.10;;;;;21.70;97678.00;;;;2066662;28;20252;-56
2023/11/04 01:56:51;;;;;;;10.20;7.70;;;;;21.70;97687.00;;;;2065940;28;20222;-56
2023/11/04 01:57:51;;;;;;;10.97;7.13;;;;;21.70;97669.00;;;;2048880;28;20250;-53
2023/11/04 01:58:53;;;;;;;10.00;6.97;;;;;21.30;97674.00;;;;2068153;28;20245;-55
2023/11/04 01:59:54;;;;;;;10.70;6.85;;;;;21.70;97675.00;;;;2055289;28;20211;-55
2023/11/04 02:00:55;;;;;;;10.45;6.60;;;;;21.70;97668.00;;;;2052404;28;20211;-56
2023/11/04 02:01:55;;;;;;;8.53;6.50;;;;;21.70;97681.00;;;;2062569;28;20643;-56
2023/11/04 02:02:55;;;;;;;9.50;6.67;;;;;21.70;97692.00;;;;2037072;28;20585;-54
2023/11/04 02:03:56;;;;;;;10.70;6.40;;;;;21.70;97668.00;;;;2056852;28;20613;-55
2023/11/04 02:04:56;;;;;;;9.70;6.63;;;;;21.70;97656.00;;;;2048093;28;20771;-56
2023/11/04 02:05:56;;;;;;;8.57;7.00;;;;;21.70;97665.00;;;;2051226;28;20234;-56
2023/11/04 02:06:57;;;;;;;8.00;6.33;;;;;21.70;97654.00;;;;2057924;28;20250;-55
2023/11/04 02:07:59;;;;;;;8.30;6.30;;;;;21.70;97653.00;;;;2049709;28;20243;-56
2023/11/04 02:08:59;;;;;;;8.18;6.57;;;;;21.70;97658.00;;;;2058102;28;20215;-56
2023/11/04 02:09:59;;;;;;;8.60;6.20;;;;;21.70;97680.00;;;;2057976;28;20219;-55
2023/11/04 02:11:04;;;;;;;8.20;6.63;;;;;21.70;97656.00;;;;2056206;28;20259;-54
2023/11/04 02:12:04;;;;;;;9.18;6.20;;;;;21.70;97656.00;;;;2055105;28;20226;-54
2023/11/04 02:13:04;;;;;;;9.47;6.07;;;;;21.70;97653.00;;;;2047624;28;20302;-56
2023/11/04 02:14:08;;;;;;;8.20;5.33;;;;;21.70;97652.00;;;;2067824;28;20214;-56
2023/11/04 02:15:15;;;;;;;7.65;6.38;;;;;21.70;97643.00;;;;2067552;28;20233;-56
2023/11/04 02:16:15;;;;;;;6.93;5.95;;;;;21.70;97653.00;;;;2057386;28;20215;-55
2023/11/04 02:17:15;;;;;;;8.50;5.70;;;;;21.70;97648.00;;;;2054067;28;20219;-56
2023/11/04 02:18:16;;;;;;;8.67;5.13;;;;;21.70;97655.00;;;;2061037;28;20222;-55
2023/11/04 02:19:16;;;;;;;7.27;5.17;;;;;21.30;97646.00;;;;2068081;28;20301;-56
2023/11/04 02:20:16;;;;;;;7.40;5.83;;;;;21.70;97654.00;;;;2062598;28;20252;-54
2023/11/04 02:21:17;;;;;;;9.13;6.20;;;;;21.70;97639.00;;;;2063373;28;20261;-55
2023/11/04 02:22:17;;;;;;;7.70;4.77;;;;;21.70;97643.00;;;;2049613;28;20286;-56
2023/11/04 02:23:17;;;;;;;7.73;5.50;;;;;21.70;97643.00;;;;2062413;28;20225;-56
2023/11/04 02:24:18;;;;;;;7.63;5.30;;;;;21.70;97644.00;;;;2063377;28;20218;-56
2023/11/04 02:25:18;;;;;;;7.33;5.10;;;;;21.70;97641.00;;;;2063899;28;20264;-56
2023/11/04 02:26:19;;;;;;;6.13;4.53;;;;;21.70;97648.00;;;;2055903;28;20246;-55
2023/11/04 02:27:19;;;;;;;6.17;4.23;;;;;21.70;97643.00;;;;2047194;28;20588;-55
2023/11/04 02:28:20;;;;;;;4.80;3.90;;;;;21.70;97648.00;;;;2058964;28;20573;-55
2023/11/04 02:29:20;;;;;;;8.80;4.40;;;;;21.70;97647.00;;;;2060397;28;20273;-54
2023/11/04 02:30:20;;;;;;;6.70;5.00;;;;;21.60;97634.00;;;;2060549;28;20218;-56
2023/11/04 02:31:21;;;;;;;5.73;4.43;;;;;21.60;97653.00;;;;2052589;28;20219;-56
2023/11/04 02:32:21;;;;;;;6.30;4.40;;;;;21.60;97636.00;;;;2047011;28;20990;-54
2023/11/04 02:33:21;;;;;;;5.30;3.87;;;;;21.60;97633.00;;;;2052783;28;21098;-56
2023/11/04 02:34:22;;;;;;;6.50;4.60;;;;;21.60;97632.00;;;;2058162;28;20246;-55
2023/11/04 02:35:22;;;;;;;5.77;4.33;;;;;21.60;97638.00;;;;2058953;28;20578;-56
2023/11/04 02:36:22;;;;;;;8.97;4.20;;;;;21.60;97634.00;;;;2054020;28;20219;-56
2023/11/04 02:37:23;;;;;;;6.03;4.17;;;;;21.60;97635.00;;;;2052185;28;20224;-56
2023/11/04 02:38:23;;;;;;;6.47;4.07;;;;;21.50;97640.00;;;;2062114;28;20310;-56
2023/11/04 02:39:23;;;;;;;6.07;4.20;;;;;21.50;97633.00;;;;2060131;28;20285;-54
2023/11/04 02:40:24;;;;;;;5.57;3.70;;;;;21.50;97641.00;;;;2062797;28;20246;-55
2023/11/04 02:41:24;;;;;;;6.10;4.20;;;;;21.50;97640.00;;;;2058753;28;20221;-53
2023/11/04 02:42:24;;;;;;;5.50;3.70;;;;;21.50;97628.00;;;;2050230;28;20236;-56
2023/11/04 02:43:25;;;;;;;5.83;4.00;;;;;21.50;97639.00;;;;2058914;28;20219;-56
2023/11/04 02:44:25;;;;;;;5.30;3.77;;;;;21.50;97635.00;;;;2057563;28;20645;-54
2023/11/04 02:45:26;;;;;;;6.00;3.47;;;;;21.50;97638.00;;;;2059847;28;20223;-55
2023/11/04 02:46:26;;;;;;;5.77;3.37;;;;;21.50;97645.00;;;;2053084;28;20215;-56
2023/11/04 02:47:26;;;;;;;5.10;4.10;;;;;21.50;97631.00;;;;2050133;28;20223;-55
2023/11/04 02:48:27;;;;;;;5.77;4.00;;;;;21.50;97635.00;;;;2052974;28;20239;-56
2023/11/04 02:49:27;;;;;;;5.20;3.20;;;;;21.50;97640.00;;;;2052695;28;20373;-57
2023/11/04 02:50:28;;;;;;;3.97;3.30;;;;;21.50;97631.00;;;;2058216;28;20295;-56
2023/11/04 02:51:28;;;;;;;4.40;3.30;;;;;21.50;97633.00;;;;2062504;28;20219;-54
2023/11/04 02:52:28;;;;;;;5.00;3.40;;;;;21.50;97637.00;;;;2052371;28;20301;-54
2023/11/04 02:53:28;;;;;;;5.80;3.37;;;;;21.50;97638.00;;;;2059777;28;20225;-54
2023/11/04 02:54:29;;;;;;;7.20;3.67;;;;;21.50;97643.00;;;;2057918;28;20223;-56
2023/11/04 02:55:29;;;;;;;3.67;2.80;;;;;21.50;97631.00;;;;2052687;28;20327;-56
2023/11/04 02:56:30;;;;;;;4.60;3.23;;;;;21.50;97614.00;;;;2064643;28;20988;-56
2023/11/04 02:57:30;;;;;;;5.43;3.07;;;;;21.50;97633.00;;;;2052240;28;20219;-56
2023/11/04 02:58:30;;;;;;;5.93;2.90;;;;;21.50;97620.00;;;;2056813;28;20224;-54
2023/11/04 02:59:31;;;;;;;6.50;3.80;;;;;21.50;97622.00;;;;2052823;28;20315;-54
2023/11/04 03:00:31;;;;;;;6.57;2.97;;;;;21.50;97623.00;;;;2054666;28;20224;-56
2023/11/04 03:01:32;;;;;;;3.33;2.97;;;;;21.50;97614.00;;;;2059859;28;20223;-56
2023/11/04 03:02:32;;;;;;;4.23;2.93;;;;;21.50;97613.00;;;;2042674;28;20223;-56
2023/11/04 03:03:32;;;;;;;4.07;3.00;;;;;21.50;97620.00;;;;2059591;28;20230;-56
2023/11/04 03:04:34;;;;;;;4.73;2.83;;;;;21.50;97625.00;;;;2061930;28;20265;-54
2023/11/04 03:05:34;;;;;;;4.15;2.85;;;;;21.40;97619.00;;;;2060178;28;20218;-56
2023/11/04 03:06:35;;;;;;;3.40;2.70;;;;;21.40;97614.00;;;;2060454;28;20211;-53
2023/11/04 03:07:35;;;;;;;4.57;3.43;;;;;21.50;97619.00;;;;2042111;28;20224;-54
2023/11/04 03:08:35;;;;;;;4.17;2.60;;;;;21.50;97615.00;;;;2060994;28;20229;-56
2023/11/04 03:09:36;;;;;;;4.40;2.93;;;;;21.40;97616.00;;;;2051765;28;20599;-54
2023/11/04 03:10:36;;;;;;;3.77;2.60;;;;;21.40;97602.00;;;;2061032;28;20229;-56
2023/11/04 03:11:37;;;;;;;3.80;2.90;;;;;21.40;97619.00;;;;2060045;28;20226;-56
2023/11/04 03:12:37;;;;;;;3.53;2.73;;;;;21.40;97614.00;;;;2051612;28;20226;-56
2023/11/04 03:13:37;;;;;;;4.70;2.83;;;;;21.40;97609.00;;;;2058469;28;20722;-54
2023/11/04 03:14:38;;;;;;;3.33;2.30;;;;;21.40;97609.00;;;;2059761;28;21007;-56
2023/11/04 03:15:38;;;;;;;4.20;2.50;;;;;21.40;97615.00;;;;2064767;28;20675;-56
2023/11/04 03:16:38;;;;;;;3.03;2.20;;;;;21.40;97617.00;;;;2051533;28;20219;-56
2023/11/04 03:17:39;;;;;;;3.07;2.60;;;;;21.40;97620.00;;;;2046296;28;20300;-56
2023/11/04 03:18:39;;;;;;;4.13;2.90;;;;;21.40;97605.00;;;;2060451;28;20223;-56
2023/11/04 03:19:40;;;;;;;3.40;2.30;;;;;21.40;97616.00;;;;2058028;28;20215;-54
2023/11/04 03:20:40;;;;;;;3.37;2.50;;;;;21.40;97610.00;;;;2066120;28;20218;-56
2023/11/04 03:21:43;;;;;;;3.00;2.30;;;;;21.40;97606.00;;;;2067183;28;20279;-55
2023/11/04 03:22:44;;;;;;;2.58;2.30;;;;;21.40;97615.00;;;;2056020;28;21103;-54
2023/11/04 03:23:44;;;;;;;2.50;2.03;;;;;21.40;97614.00;;;;2067863;28;20233;-55
2023/11/04 03:24:45;;;;;;;3.13;2.23;;;;;21.40;97605.00;;;;2065405;28;20301;-55
2023/11/04 03:25:45;;;;;;;2.73;2.20;;;;;21.40;97611.00;;;;2059604;28;20228;-56
2023/11/04 03:26:46;;;;;;;3.20;2.23;;;;;21.40;97608.00;;;;2049238;28;20230;-56
2023/11/04 03:27:46;;;;;;;3.07;2.10;;;;;21.40;97601.00;;;;2050842;28;20222;-54
2023/11/04 03:28:46;;;;;;;3.50;2.07;;;;;21.40;97603.00;;;;2060588;28;20277;-56
2023/11/04 03:29:47;;;;;;;3.00;2.10;;;;;21.40;97606.00;;;;2060213;28;20297;-55
2023/11/04 03:30:47;;;;;;;2.73;1.93;;;;;21.40;97604.00;;;;2052638;28;20223;-54
2023/11/04 03:31:48;;;;;;;5.27;2.80;;;;;21.40;97606.00;;;;2052982;28;20225;-56
2023/11/04 03:32:48;;;;;;;2.37;1.90;;;;;21.40;97622.00;;;;2050183;28;20227;-55
2023/11/04 03:33:48;;;;;;;3.00;2.00;;;;;21.40;97610.00;;;;2059207;28;20921;-54
2023/11/04 03:34:49;;;;;;;2.90;2.07;;;;;21.40;97602.00;;;;2062109;28;20234;-56
2023/11/04 03:35:49;;;;;;;2.90;1.83;;;;;21.40;97603.00;;;;2059417;28;20227;-55
2023/11/04 03:36:51;;;;;;;3.20;2.30;;;;;21.40;97600.00;;;;2057410;28;20285;-55
2023/11/04 03:37:51;;;;;;;2.70;2.10;;;;;21.40;97608.00;;;;2048316;28;20326;-58
2023/11/04 03:38:52;;;;;;;2.90;2.13;;;;;21.40;97597.00;;;;2057150;28;20309;-57
2023/11/04 03:39:52;;;;;;;2.60;1.80;;;;;21.40;97600.00;;;;2060044;28;20211;-55
2023/11/04 03:40:53;;;;;;;2.93;2.03;;;;;21.40;97596.00;;;;2060022;28;20218;-54
2023/11/04 03:41:53;;;;;;;2.57;2.03;;;;;21.40;97598.00;;;;2050191;28;20458;-56
2023/11/04 03:42:54;;;;;;;3.00;1.50;;;;;21.40;97599.00;;;;2041581;28;21002;-54
2023/11/04 03:43:54;;;;;;;2.40;1.57;;;;;21.30;97591.00;;;;2062334;28;20613;-56
2023/11/04 03:44:55;;;;;;;2.60;1.90;;;;;21.40;97589.00;;;;2060023;28;20601;-53
2023/11/04 03:45:56;;;;;;;2.60;1.90;;;;;21.30;97592.00;;;;2058745;28;20226;-54
2023/11/04 03:46:56;;;;;;;2.85;1.85;;;;;21.40;97600.00;;;;2051438;28;20695;-56
2023/11/04 03:47:57;;;;;;;3.30;1.97;;;;;21.30;97579.00;;;;2050650;28;20219;-56
2023/11/04 03:48:57;;;;;;;2.80;1.90;;;;;21.40;97595.00;;;;2062855;28;20228;-56
2023/11/04 03:49:58;;;;;;;3.30;1.90;;;;;21.30;97594.00;;;;2055985;28;20229;-56
2023/11/04 03:50:58;;;;;;;2.00;1.60;;;;;21.30;97582.00;;;;2052018;28;20215;-56
2023/11/04 03:51:58;;;;;;;2.50;1.70;;;;;21.30;97593.00;;;;2057240;28;20222;-56
2023/11/04 03:52:59;;;;;;;2.23;1.53;;;;;21.30;97597.00;;;;2048493;28;20683;-55
2023/11/04 03:53:59;;;;;;;2.60;1.77;;;;;21.30;97586.00;;;;2055740;28;20210;-56
2023/11/04 03:55:00;;;;;;;3.17;1.63;;;;;21.30;97588.00;;;;2052632;28;20235;-54
2023/11/04 03:56:01;;;;;;;4.50;2.50;;;;;21.30;97584.00;;;;2051866;28;20219;-56
2023/11/04 03:57:02;;;;;;;2.22;1.40;;;;;21.30;97594.00;;;;2060591;28;20223;-56
2023/11/04 03:58:02;;;;;;;2.50;1.40;;;;;21.30;97582.00;;;;2056215;28;20237;-55
2023/11/04 03:59:02;;;;;;;2.63;1.40;;;;;21.30;97586.00;;;;2064302;28;20253;-56
2023/11/04 04:00:03;;;;;;;2.70;1.60;;;;;21.30;97586.00;;;;2057392;28;20215;-55
2023/11/04 04:01:04;;;;;;;1.90;1.40;;;;;21.30;97585.00;;;;2061026;28;20210;-56
2023/11/04 04:02:06;;;;;;;3.47;2.10;;;;;21.30;97587.00;;;;2055513;28;20211;-55
2023/11/04 04:03:07;;;;;;;3.05;1.88;;;;;21.30;97597.00;;;;2050998;28;20298;-56
2023/11/04 04:04:07;;;;;;;2.00;1.50;;;;;21.30;97587.00;;;;2055849;28;20215;-56
2023/11/04 04:05:08;;;;;;;1.80;1.20;;;;;21.30;97588.00;;;;2061745;28;20469;-56
2023/11/04 04:06:08;;;;;;;1.80;1.20;;;;;21.30;97585.00;;;;2060302;28;20207;-54
2023/11/04 04:07:09;;;;;;;2.37;1.40;;;;;21.30;97587.00;;;;2060496;28;20258;-56
2023/11/04 04:08:09;;;;;;;1.80;1.40;;;;;21.30;97579.00;;;;2056533;28;20233;-56
2023/11/04 04:09:10;;;;;;;1.83;1.57;;;;;21.30;97583.00;;;;2060950;28;20214;-56
2023/11/04 04:10:10;;;;;;;2.03;1.57;;;;;21.30;97491.00;;;;2060984;28;20223;-55
2023/11/04 04:11:11;;;;;;;1.70;1.27;;;;;21.30;97576.00;;;;2058169;28;20262;-54
2023/11/04 04:12:12;;;;;;;2.47;1.60;;;;;21.30;97574.00;;;;2054358;28;20717;-55
2023/11/04 04:13:12;;;;;;;2.10;1.38;;;;;21.30;97573.00;;;;2043882;28;20216;-57
2023/11/04 04:14:13;;;;;;;1.70;1.20;;;;;21.30;97584.00;;;;2053095;28;20629;-54
2023/11/04 04:15:13;;;;;;;2.22;1.35;;;;;21.30;97571.00;;;;2057325;28;20645;-57
2023/11/04 04:16:14;;;;;;;3.43;1.50;;;;;21.30;97564.00;;;;2055120;28;20215;-56
2023/11/04 04:17:14;;;;;;;1.60;1.10;;;;;21.30;97569.00;;;;2060563;28;21839;-57
2023/11/04 04:18:14;;;;;;;2.20;1.57;;;;;21.30;97391.00;;;;2051858;28;20591;-57
2023/11/04 04:19:15;;;;;;;2.10;1.30;;;;;21.30;97569.00;;;;2068735;28;20230;-54
2023/11/04 04:20:21;;;;;;;1.70;1.30;;;;;21.30;97570.00;;;;2070204;28;20234;-54
2023/11/04 04:21:21;;;;;;;2.35;1.42;;;;;21.30;97566.00;;;;2060600;28;20265;-54
2023/11/04 04:22:21;;;;;;;2.17;1.50;;;;;21.30;97563.00;;;;2054651;28;20989;-56
2023/11/04 04:23:22;;;;;;;3.13;1.13;;;;;21.30;97563.00;;;;2056861;28;20306;-57
2023/11/04 04:24:22;;;;;;;2.17;1.40;;;;;21.20;97566.00;;;;2061997;28;20245;-54
2023/11/04 04:25:22;;;;;;;1.93;1.47;;;;;21.30;97563.00;;;;2065344;28;20272;-56
2023/11/04 04:26:23;;;;;;;1.97;1.77;;;;;21.30;97568.00;;;;2059590;28;20314;-55
2023/11/04 04:27:23;;;;;;;2.00;1.20;;;;;21.30;97566.00;;;;2043664;28;20225;-55
2023/11/04 04:28:24;;;;;;;1.87;1.23;;;;;21.20;97560.00;;;;2057461;28;20218;-56
2023/11/04 04:29:24;;;;;;;2.13;1.37;;;;;21.30;97562.00;;;;2060675;28;20259;-56
2023/11/04 04:30:24;;;;;;;1.50;0.90;;;;;21.30;97563.00;;;;2057062;28;20223;-56
2023/11/04 04:31:27;;;;;;;2.40;1.23;;;;;21.30;97560.00;;;;2056997;28;20223;-56
2023/11/04 04:32:27;;;;;;;1.63;1.00;;;;;21.30;97550.00;;;;2052238;28;20913;-54
2023/11/04 04:33:28;;;;;;;1.77;1.00;;;;;21.30;97556.00;;;;2063297;28;20225;-55
2023/11/04 04:34:28;;;;;;;1.77;1.27;;;;;21.30;97551.00;;;;2063664;28;20226;-56
2023/11/04 04:35:28;;;;;;;1.53;0.83;;;;;21.20;97549.00;;;;2061212;28;20325;-57
2023/11/04 04:36:30;;;;;;;1.30;0.97;;;;;21.20;97555.00;;;;2058243;28;20810;-56
2023/11/04 04:37:30;;;;;;;1.70;1.15;;;;;21.20;97551.00;;;;2049653;28;20251;-53
2023/11/04 04:38:30;;;;;;;1.60;1.03;;;;;21.20;97541.00;;;;2056961;28;20282;-55
2023/11/04 04:39:31;;;;;;;2.10;1.10;;;;;21.30;97542.00;;;;2060233;28;20226;-55
2023/11/04 04:40:31;;;;;;;1.20;0.83;;;;;21.20;97546.00;;;;2056039;28;20227;-56
2023/11/04 04:41:31;;;;;;;3.90;1.17;;;;;21.30;97551.00;;;;2057429;28;20315;-56
2023/11/04 04:42:32;;;;;;;3.00;1.13;;;;;21.20;97544.00;;;;2046747;28;20223;-54
2023/11/04 04:43:32;;;;;;;1.23;0.80;;;;;21.20;97539.00;;;;2058492;28;20219;-54
2023/11/04 04:44:34;;;;;;;2.13;1.13;;;;;21.20;97556.00;;;;2055786;28;20230;-55
2023/11/04 04:45:34;;;;;;;1.40;0.90;;;;;21.20;97548.00;;;;2052250;28;20223;-53
2023/11/04 04:46:39;;;;;;;2.30;1.27;;;;;21.20;97545.00;;;;2063056;28;20217;-54
2023/11/04 04:47:40;;;;;;;1.40;0.90;;;;;21.20;97545.00;;;;2045883;28;20238;-56
2023/11/04 04:48:40;;;;;;;2.50;1.00;;;;;21.20;97552.00;;;;2060272;28;20210;-56
2023/11/04 04:49:40;;;;;;;1.63;0.90;;;;;21.20;97354.00;;;;2055008;28;21139;-54
2023/11/04 04:50:41;;;;;;;1.83;1.13;;;;;21.20;97562.00;;;;2058508;28;20588;-55
2023/11/04 04:51:42;;;;;;;2.23;0.80;;;;;21.20;97555.00;;;;2060724;28;20217;-56
2023/11/04 04:52:42;;;;;;;1.67;1.00;;;;;21.20;97553.00;;;;2049500;28;20977;-53
2023/11/04 04:53:42;;;;;;;1.47;1.00;;;;;21.30;97548.00;;;;2060858;28;20269;-55
2023/11/04 04:54:43;;;;;;;1.50;1.00;;;;;21.20;97540.00;;;;2054108;28;20259;-54
2023/11/04 04:55:43;;;;;;;1.43;0.90;;;;;21.20;97542.00;;;;2064986;28;20655;-56
2023/11/04 04:56:44;;;;;;;1.57;0.83;;;;;21.20;97534.00;;;;2055160;28;20258;-56
2023/11/04 04:57:44;;;;;;;2.40;1.20;;;;;21.20;97543.00;;;;2049780;28;20921;-57
2023/11/04 04:58:46;;;;;;;1.80;1.00;;;;;21.20;97533.00;;;;2061586;28;20758;-56
2023/11/04 04:59:46;;;;;;;1.55;0.98;;;;;21.20;97533.00;;;;2053537;28;20230;-55
2023/11/04 05:00:46;;;;;;;1.77;0.80;;;;;21.20;97543.00;;;;2060083;28;20755;-56